Time;durP1;ratioP1;P1;durP2;ratioP2;P2;SDS_P1;SDS_P2;PMS_P1;PMS_P2;Temp;Humidity;BMP_temperature;BMP_pressure;BME280_temperature;BME280_humidity;BME280_pressure;Samples;Min_cycle;Max_cycle;Signal;HPM_P1;HPM_P2
2022/03/04 00:01:12;;;;;;;1.88;1.75;;;2.70;92.70;;;;;;6315665;22;20448;-79
2022/03/04 00:03:38;;;;;;;0.75;0.75;;;2.70;92.70;;;;;;6315768;22;20441;-78
2022/03/04 00:06:05;;;;;;;0.30;0.30;;;2.70;92.70;;;;;;6315768;22;20082;-78
2022/03/04 00:08:31;;;;;;;1.08;0.85;;;2.70;93.00;;;;;;6315498;22;20086;-78
2022/03/04 00:10:57;;;;;;;1.50;1.40;;;2.60;93.50;;;;;;6314484;22;20012;-78
2022/03/04 00:13:23;;;;;;;5.88;0.95;;;2.50;93.60;;;;;;6314285;22;20021;-78
2022/03/04 00:15:50;;;;;;;3.83;2.40;;;2.50;93.90;;;;;;6314495;22;20031;-79
2022/03/04 00:18:16;;;;;;;0.38;0.38;;;2.40;94.00;;;;;;6253011;22;20057;-79
2022/03/04 00:20:43;;;;;;;0.57;0.57;;;2.40;94.10;;;;;;6314163;22;20011;-77
2022/03/04 00:23:09;;;;;;;0.52;0.52;;;2.30;94.40;;;;;;6304540;22;20019;-78
2022/03/04 00:25:35;;;;;;;0.88;0.88;;;2.30;94.70;;;;;;6313968;22;20003;-77
2022/03/04 00:28:00;;;;;;;1.27;1.17;;;2.30;94.80;;;;;;6305712;22;20012;-77
2022/03/04 00:30:26;;;;;;;0.55;0.55;;;2.20;94.90;;;;;;6305593;22;20007;-78
2022/03/04 00:32:52;;;;;;;0.30;0.30;;;2.10;95.80;;;;;;6305152;22;20384;-78
2022/03/04 00:35:18;;;;;;;0.82;0.82;;;1.90;96.20;;;;;;6315829;22;20043;-78
2022/03/04 00:37:44;;;;;;;1.60;1.10;;;1.80;96.40;;;;;;6313794;22;20045;-77
2022/03/04 00:40:11;;;;;;;1.05;1.05;;;1.70;96.70;;;;;;6315799;22;20039;-77
2022/03/04 00:42:37;;;;;;;7.50;1.30;;;1.80;97.10;;;;;;6313773;22;20114;-78
2022/03/04 00:45:04;;;;;;;0.43;0.43;;;1.70;97.00;;;;;;6277990;22;20351;-78
2022/03/04 00:47:30;;;;;;;0.43;0.43;;;1.70;97.10;;;;;;6305304;22;20047;-78
2022/03/04 00:49:55;;;;;;;0.10;0.10;;;1.70;96.80;;;;;;6277827;22;20006;-78
2022/03/04 00:52:21;;;;;;;0.55;0.55;;;1.70;96.70;;;;;;6315285;22;20117;-78
2022/03/04 00:54:47;;;;;;;9.30;2.63;;;1.80;96.60;;;;;;6315487;22;20069;-78
2022/03/04 00:57:13;;;;;;;0.45;0.45;;;1.80;96.70;;;;;;6315531;22;20432;-78
2022/03/04 00:59:38;;;;;;;1.40;0.73;;;1.80;97.20;;;;;;6315517;22;20037;-78
2022/03/04 01:02:04;;;;;;;1.30;1.20;;;1.70;97.50;;;;;;6313916;22;20010;-78
2022/03/04 01:04:30;;;;;;;0.40;0.40;;;1.70;97.70;;;;;;6307301;22;20080;-78
2022/03/04 01:06:56;;;;;;;0.10;0.10;;;1.80;97.70;;;;;;6317174;22;20003;-78
2022/03/04 01:09:21;;;;;;;0.60;0.60;;;1.90;97.50;;;;;;6307363;22;20027;-78
2022/03/04 01:11:47;;;;;;;0.38;0.38;;;1.90;97.40;;;;;;6317254;22;20015;-78
2022/03/04 01:14:13;;;;;;;0.52;0.52;;;2.00;97.40;;;;;;6307032;22;20062;-79
2022/03/04 01:16:39;;;;;;;0.10;0.10;;;2.10;97.30;;;;;;6317136;22;20010;-78
2022/03/04 01:19:05;;;;;;;0.45;0.45;;;2.10;97.10;;;;;;6307194;22;20012;-78
2022/03/04 01:21:31;;;;;;;1.10;1.00;;;2.20;96.90;;;;;;6317136;22;20080;-78
2022/03/04 01:23:56;;;;;;;0.20;0.20;;;2.30;96.80;;;;;;6317321;22;20011;-78
2022/03/04 01:26:22;;;;;;;0.15;0.15;;;2.40;96.60;;;;;;6317147;22;20463;-79
2022/03/04 01:28:48;;;;;;;2.00;1.85;;;2.40;96.50;;;;;;6306958;22;20064;-78
2022/03/04 01:31:15;;;;;;;0.10;0.10;;;2.40;96.50;;;;;;6317231;22;20010;-77
2022/03/04 01:33:44;;;;;;;0.95;0.93;;;2.50;96.40;;;;;;6316796;22;20018;-79
2022/03/04 01:36:09;;;;;;;2.83;1.10;;;2.50;96.50;;;;;;6315628;22;20004;-78
2022/03/04 01:38:35;;;;;;;5.63;2.47;;;2.50;96.40;;;;;;6315248;22;20021;-79
2022/03/04 01:41:01;;;;;;;0.73;0.73;;;2.50;96.40;;;;;;6305203;22;20006;-78
2022/03/04 01:43:27;;;;;;;0.10;0.10;;;2.60;96.30;;;;;;6307019;22;20047;-79
2022/03/04 01:45:53;;;;;;;0.65;0.57;;;2.60;96.20;;;;;;6316774;22;19995;-80
2022/03/04 01:48:20;;;;;;;0.38;0.38;;;2.60;96.30;;;;;;6306965;22;20013;-78
2022/03/04 01:50:51;;;;;;;1.55;1.45;;;2.70;96.30;;;;;;6278899;22;20011;-78
2022/03/04 01:53:21;;;;;;;0.20;0.20;;;2.70;96.20;;;;;;6316818;22;20874;-79
2022/03/04 01:55:47;;;;;;;1.13;1.13;;;2.70;96.30;;;;;;6307016;22;20733;-78
2022/03/04 01:58:13;;;;;;;0.65;0.65;;;2.80;96.30;;;;;;6278887;22;20010;-79
2022/03/04 02:00:38;;;;;;;0.10;0.10;;;2.70;96.30;;;;;;6253567;22;20008;-78
2022/03/04 02:03:10;;;;;;;0.30;0.30;;;2.70;96.20;;;;;;6316992;22;20332;-79
2022/03/04 02:05:36;;;;;;;9.07;1.95;;;2.70;96.30;;;;;;6315274;22;20007;-79
2022/03/04 02:08:02;;;;;;;4.07;3.05;;;2.70;96.40;;;;;;6316909;22;20013;-78
2022/03/04 02:10:28;;;;;;;3.58;2.13;;;2.70;96.50;;;;;;6315193;22;20030;-79
2022/03/04 02:12:54;;;;;;;0.50;0.50;;;2.70;96.50;;;;;;6316636;22;20003;-78
2022/03/04 02:15:19;;;;;;;0.40;0.40;;;2.60;96.70;;;;;;6316708;22;20014;-78
2022/03/04 02:17:45;;;;;;;0.47;0.47;;;2.40;96.80;;;;;;6316892;22;20015;-78
2022/03/04 02:20:11;;;;;;;2.00;1.80;;;2.40;97.00;;;;;;6316720;22;20003;-78
2022/03/04 02:22:37;;;;;;;0.63;0.63;;;2.40;97.00;;;;;;6306389;22;20134;-77
2022/03/04 02:25:05;;;;;;;0.60;0.60;;;2.20;97.20;;;;;;6305040;22;20117;-78
2022/03/04 02:27:32;;;;;;;2.65;2.40;;;2.20;97.40;;;;;;6306153;22;20425;-77
2022/03/04 02:29:59;;;;;;;2.60;2.40;;;2.10;97.80;;;;;;6315326;22;20458;-78
2022/03/04 02:32:25;;;;;;;0.28;0.28;;;2.00;98.10;;;;;;6304884;22;20007;-78
2022/03/04 02:34:51;;;;;;;0.38;0.38;;;1.90;98.20;;;;;;6314921;22;20037;-78
2022/03/04 02:37:18;;;;;;;0.40;0.40;;;1.80;98.40;;;;;;6315152;22;20205;-78
2022/03/04 02:39:44;;;;;;;1.45;0.88;;;1.70;98.60;;;;;;6316496;22;20003;-78
2022/03/04 02:42:10;;;;;;;4.78;0.55;;;1.50;99.30;;;;;;6316300;22;20007;-78
2022/03/04 02:44:36;;;;;;;1.55;1.45;;;1.50;99.90;;;;;;6288932;22;20011;-78
2022/03/04 02:47:02;;;;;;;2.22;2.08;;;1.40;99.90;;;;;;6316373;22;20004;-79
2022/03/04 02:49:28;;;;;;;5.90;1.75;;;1.40;99.90;;;;;;6314832;22;20022;-78
2022/03/04 02:51:54;;;;;;;0.38;0.38;;;1.30;99.90;;;;;;6316039;22;20015;-78
2022/03/04 02:54:21;;;;;;;6.80;4.10;;;1.30;99.90;;;;;;6289313;22;20061;-78
2022/03/04 02:56:47;;;;;;;0.28;0.28;;;1.20;99.90;;;;;;6315083;22;20082;-78
2022/03/04 02:59:12;;;;;;;1.35;1.25;;;1.20;99.90;;;;;;6306400;22;20014;-78
2022/03/04 03:01:38;;;;;;;2.40;2.20;;;1.20;99.90;;;;;;6316271;22;20003;-78
2022/03/04 03:04:04;;;;;;;1.35;1.25;;;1.10;99.90;;;;;;6315161;22;20424;-77
2022/03/04 03:06:30;;;;;;;0.20;0.20;;;1.10;99.90;;;;;;6314848;22;20011;-78
2022/03/04 03:08:55;;;;;;;0.25;0.25;;;1.10;99.90;;;;;;6306287;22;20013;-77
2022/03/04 03:11:21;;;;;;;0.43;0.43;;;1.00;99.90;;;;;;6316480;22;20336;-78
2022/03/04 03:13:47;;;;;;;0.20;0.20;;;1.00;99.90;;;;;;6304639;22;20090;-78
2022/03/04 03:16:13;;;;;;;2.05;1.55;;;0.90;99.90;;;;;;6316181;22;20023;-79
2022/03/04 03:18:38;;;;;;;0.43;0.43;;;0.90;99.90;;;;;;6305725;22;20102;-77
2022/03/04 03:21:05;;;;;;;2.85;1.10;;;0.80;99.90;;;;;;6316223;22;20003;-78
2022/03/04 03:23:31;;;;;;;0.30;0.30;;;0.80;99.90;;;;;;6314601;22;20007;-77
2022/03/04 03:25:56;;;;;;;1.20;1.10;;;0.80;99.90;;;;;;6314212;22;20011;-78
2022/03/04 03:28:22;;;;;;;0.10;0.10;;;0.80;99.90;;;;;;6316154;22;20007;-78
2022/03/04 03:30:48;;;;;;;0.10;0.10;;;0.70;99.90;;;;;;6305867;22;20006;-78
2022/03/04 03:33:14;;;;;;;0.43;0.43;;;0.50;99.90;;;;;;6314451;22;20439;-78
2022/03/04 03:35:39;;;;;;;0.98;0.98;;;0.40;99.90;;;;;;6315958;22;20082;-78
2022/03/04 03:38:05;;;;;;;5.53;2.42;;;0.40;99.90;;;;;;6316042;22;20065;-77
2022/03/04 03:40:31;;;;;;;0.15;0.15;;;0.30;99.90;;;;;;6314659;22;20478;-77
2022/03/04 03:42:57;;;;;;;2.78;2.53;;;0.30;99.90;;;;;;6304008;22;20011;-78
2022/03/04 03:45:22;;;;;;;1.73;0.70;;;0.20;99.90;;;;;;6305883;22;20320;-78
2022/03/04 03:47:48;;;;;;;2.70;2.45;;;0.20;99.90;;;;;;6305915;22;20070;-77
2022/03/04 03:50:14;;;;;;;0.20;0.20;;;0.20;99.90;;;;;;6315854;22;20027;-78
2022/03/04 03:52:40;;;;;;;0.28;0.28;;;0.20;99.90;;;;;;6305965;22;20011;-77
2022/03/04 03:55:07;;;;;;;0.43;0.43;;;0.10;99.90;;;;;;6305730;22;20377;-77
2022/03/04 03:57:33;;;;;;;0.35;0.35;;;0.20;99.90;;;;;;6306104;22;19999;-78
2022/03/04 03:59:58;;;;;;;0.73;0.73;;;0.20;99.90;;;;;;6314128;22;20048;-77
2022/03/04 04:02:24;;;;;;;0.52;0.52;;;0.10;99.90;;;;;;6305738;22;20038;-77
2022/03/04 04:04:50;;;;;;;0.95;0.95;;;0.10;99.90;;;;;;6315609;22;20076;-77
2022/03/04 04:07:15;;;;;;;0.98;0.95;;;0.10;99.90;;;;;;6305913;22;20012;-77
2022/03/04 04:09:41;;;;;;;1.08;1.05;;;0.10;99.90;;;;;;6315820;22;20011;-77
2022/03/04 04:12:08;;;;;;;0.63;0.63;;;0.10;99.90;;;;;;6314469;22;20017;-77
2022/03/04 04:14:33;;;;;;;0.10;0.10;;;0.10;99.90;;;;;;6315702;22;20011;-77
2022/03/04 04:16:59;;;;;;;0.75;0.75;;;0.00;99.90;;;;;;6303659;22;20007;-77
2022/03/04 04:19:25;;;;;;;1.17;1.17;;;0.00;99.90;;;;;;6303980;22;20072;-77
2022/03/04 04:21:52;;;;;;;2.25;2.05;;;0.00;99.90;;;;;;6315757;22;20046;-77
2022/03/04 04:24:18;;;;;;;0.82;0.82;;;0.10;99.90;;;;;;6314391;22;20368;-77
2022/03/04 04:26:46;;;;;;;0.95;0.95;;;0.10;99.90;;;;;;6315681;22;20018;-77
2022/03/04 04:29:12;;;;;;;4.38;1.95;;;0.10;99.90;;;;;;6314408;22;20007;-77
2022/03/04 04:31:39;;;;;;;0.40;0.40;;;0.10;99.90;;;;;;6304076;22;20015;-77
2022/03/04 04:34:04;;;;;;;0.43;0.43;;;0.10;99.90;;;;;;6315796;22;20004;-77
2022/03/04 04:36:30;;;;;;;0.57;0.57;;;0.10;99.90;;;;;;6315697;22;20004;-77
2022/03/04 04:38:56;;;;;;;0.85;0.85;;;0.10;99.90;;;;;;6306931;22;20018;-77
2022/03/04 04:41:22;;;;;;;0.57;0.57;;;0.10;99.90;;;;;;6307415;22;20455;-77
2022/03/04 04:43:48;;;;;;;0.20;0.20;;;0.10;99.90;;;;;;6307565;22;20010;-77
2022/03/04 04:46:15;;;;;;;0.43;0.43;;;0.00;99.90;;;;;;6315988;22;20011;-77
2022/03/04 04:48:41;;;;;;;0.90;0.63;;;0.00;99.90;;;;;;6315902;22;20011;-77
2022/03/04 04:51:07;;;;;;;1.75;1.65;;;0.00;99.90;;;;;;6305442;22;20018;-77
2022/03/04 04:53:34;;;;;;;0.95;0.90;;;0.00;99.90;;;;;;6307540;22;20068;-77
2022/03/04 04:56:00;;;;;;;1.13;1.08;;;0.00;99.90;;;;;;6315278;22;20007;-78
2022/03/04 04:58:26;;;;;;;0.25;0.25;;;-0.10;99.90;;;;;;6318328;22;20011;-78
2022/03/04 05:00:55;;;;;;;2.08;1.33;;;-0.10;99.90;;;;;;6315906;22;20328;-79
2022/03/04 05:03:26;;;;;;;3.17;2.58;;;-0.20;99.90;;;;;;6305822;22;20004;-77
2022/03/04 05:05:56;;;;;;;3.10;2.47;;;-0.20;99.90;;;;;;6315533;22;20485;-71
2022/03/04 05:08:24;;;;;;;0.43;0.32;;;-0.30;99.90;;;;;;6315997;22;20014;-70
2022/03/04 05:10:50;;;;;;;0.10;0.10;;;-0.30;99.90;;;;;;6315787;22;20003;-68
2022/03/04 05:13:16;;;;;;;0.28;0.28;;;-0.40;99.90;;;;;;6314917;22;20009;-68
2022/03/04 05:15:42;;;;;;;1.85;1.65;;;-0.40;99.90;;;;;;6317177;22;20011;-68
2022/03/04 05:18:10;;;;;;;0.75;0.73;;;-0.40;99.90;;;;;;6307469;22;20011;-69
2022/03/04 05:20:36;;;;;;;0.32;0.32;;;-0.40;99.90;;;;;;6315933;22;20337;-69
2022/03/04 05:23:03;;;;;;;0.43;0.43;;;-0.40;99.90;;;;;;6315478;22;20014;-70
2022/03/04 05:25:29;;;;;;;0.57;0.57;;;-0.50;99.90;;;;;;6316142;22;20007;-71
2022/03/04 05:27:54;;;;;;;0.10;0.10;;;-0.50;99.90;;;;;;6315548;22;20015;-68
2022/03/04 05:30:20;;;;;;;0.20;0.20;;;-0.50;99.90;;;;;;6317253;22;20074;-69
2022/03/04 05:32:46;;;;;;;4.45;2.50;;;-0.50;99.90;;;;;;6315936;22;20004;-69
2022/03/04 05:35:12;;;;;;;0.35;0.35;;;-0.50;99.90;;;;;;6306883;22;20086;-69
2022/03/04 05:37:37;;;;;;;0.70;0.70;;;-0.50;99.90;;;;;;6306773;22;20007;-70
2022/03/04 05:40:04;;;;;;;0.38;0.38;;;-0.60;99.90;;;;;;6316962;22;20015;-66
2022/03/04 05:42:30;;;;;;;0.10;0.10;;;-0.60;99.90;;;;;;6317056;22;20015;-68
2022/03/04 05:44:56;;;;;;;0.35;0.35;;;-0.70;99.90;;;;;;6316868;22;20057;-67
2022/03/04 05:47:22;;;;;;;24.98;3.30;;;-0.70;99.90;;;;;;6315120;22;20086;-67
2022/03/04 05:49:48;;;;;;;0.28;0.28;;;-0.80;99.90;;;;;;6316523;22;20366;-67
2022/03/04 05:52:13;;;;;;;2.53;1.40;;;-0.80;99.90;;;;;;6316586;22;20106;-68
2022/03/04 05:54:39;;;;;;;0.13;0.13;;;-0.40;99.90;;;;;;6307052;22;20035;-67
2022/03/04 05:57:08;;;;;;;1.95;1.58;;;-0.20;99.90;;;;;;6316645;22;20054;-67
2022/03/04 05:59:34;;;;;;;0.50;0.50;;;-0.40;99.90;;;;;;6307061;22;20019;-67
2022/03/04 06:02:00;;;;;;;0.17;0.17;;;-0.40;99.90;;;;;;6316815;22;20030;-67
2022/03/04 06:04:25;;;;;;;6.57;3.25;;;-0.30;99.90;;;;;;6316998;22;20451;-68
2022/03/04 06:06:51;;;;;;;1.73;1.48;;;-0.40;99.90;;;;;;6306893;22;20018;-68
2022/03/04 06:09:17;;;;;;;0.80;0.80;;;-0.40;99.90;;;;;;6315406;22;20526;-66
2022/03/04 06:11:45;;;;;;;8.43;5.25;;;-0.40;99.90;;;;;;6316284;22;20008;-69
2022/03/04 06:14:10;;;;;;;1.55;0.80;;;-0.40;99.90;;;;;;6315277;22;20007;-69
2022/03/04 06:16:36;;;;;;;0.60;0.60;;;-0.40;99.90;;;;;;6316720;22;20007;-68
2022/03/04 06:19:02;;;;;;;0.45;0.38;;;-0.40;99.90;;;;;;6305130;22;20010;-72
2022/03/04 06:21:28;;;;;;;0.60;0.60;;;-0.40;99.90;;;;;;6315202;22;20037;-72
2022/03/04 06:23:54;;;;;;;1.77;1.65;;;-0.40;99.90;;;;;;6316499;22;20098;-71
2022/03/04 06:26:20;;;;;;;1.55;1.27;;;-0.40;99.90;;;;;;6306269;22;19999;-68
2022/03/04 06:28:46;;;;;;;1.45;1.35;;;-0.40;99.90;;;;;;6316051;22;20022;-81
2022/03/04 06:31:12;;;;;;;1.42;1.38;;;-0.50;99.90;;;;;;6305179;22;20008;-68
2022/03/04 06:33:39;;;;;;;0.10;0.10;;;-0.50;99.90;;;;;;6306045;22;20539;-73
2022/03/04 06:36:13;;;;;;;0.57;0.57;;;-0.50;99.90;;;;;;6316377;22;20020;-77
2022/03/04 06:38:43;;;;;;;0.30;0.30;;;-0.40;99.90;;;;;;6305282;22;20003;-75
2022/03/04 06:41:10;;;;;;;2.38;2.17;;;-0.40;99.90;;;;;;6316539;22;20458;-75
2022/03/04 06:43:37;;;;;;;0.20;0.20;;;-0.40;99.90;;;;;;6304687;22;20114;-75
2022/03/04 06:46:03;;;;;;;0.77;0.45;;;-0.50;99.90;;;;;;6306215;22;20712;-74
2022/03/04 06:48:29;;;;;;;1.05;1.05;;;-0.50;99.90;;;;;;6305943;22;20073;-75
2022/03/04 06:50:55;;;;;;;0.88;0.88;;;-0.40;99.90;;;;;;6305991;22;20019;-76
2022/03/04 06:53:21;;;;;;;0.22;0.22;;;-0.50;99.90;;;;;;6306179;22;20011;-75
2022/03/04 06:55:48;;;;;;;0.28;0.28;;;-0.50;99.90;;;;;;6316057;22;20493;-74
2022/03/04 06:58:14;;;;;;;3.75;2.88;;;-0.50;99.90;;;;;;6314283;22;20015;-75
2022/03/04 07:00:42;;;;;;;5.68;2.47;;;-0.50;99.90;;;;;;6304481;22;20075;-74
2022/03/04 07:03:09;;;;;;;2.63;1.45;;;-0.40;99.90;;;;;;6305936;22;20007;-75
2022/03/04 07:05:36;;;;;;;0.30;0.30;;;-0.40;99.90;;;;;;6316514;22;20010;-75
2022/03/04 07:08:02;;;;;;;0.32;0.32;;;-0.40;99.90;;;;;;6288851;22;20015;-74
2022/03/04 07:10:28;;;;;;;0.90;0.90;;;-0.30;99.90;;;;;;6305920;22;20007;-75
2022/03/04 07:12:54;;;;;;;2.28;2.10;;;-0.30;99.90;;;;;;6315937;22;20112;-75
2022/03/04 07:15:20;;;;;;;0.20;0.20;;;-0.30;99.90;;;;;;6316205;22;20420;-74
2022/03/04 07:17:49;;;;;;;4.68;3.20;;;-0.30;99.90;;;;;;6305986;22;20049;-75
2022/03/04 07:20:15;;;;;;;0.20;0.20;;;-0.20;99.90;;;;;;6316290;22;20034;-75
2022/03/04 07:22:42;;;;;;;0.47;0.47;;;-0.10;99.90;;;;;;6314429;22;19999;-74
2022/03/04 07:25:15;;;;;;;0.25;0.25;;;-0.10;99.90;;;;;;6305752;22;20011;-73
2022/03/04 07:27:42;;;;;;;3.13;2.92;;;0.00;99.90;;;;;;6314724;22;20090;-74
2022/03/04 07:30:12;;;;;;;6.85;1.20;;;0.10;99.90;;;;;;6304599;22;20419;-74
2022/03/04 07:32:39;;;;;;;3.10;2.88;;;0.10;99.90;;;;;;6314282;22;20015;-74
2022/03/04 07:35:07;;;;;;;0.50;0.50;;;0.20;99.90;;;;;;6278486;22;20018;-74
2022/03/04 07:37:35;;;;;;;0.45;0.45;;;0.30;99.90;;;;;;6279372;22;19999;-68
2022/03/04 07:40:05;;;;;;;0.28;0.28;;;0.40;99.90;;;;;;6314514;22;20336;-73
2022/03/04 07:42:31;;;;;;;0.30;0.30;;;0.50;99.90;;;;;;6316172;22;20007;-74
2022/03/04 07:44:57;;;;;;;0.70;0.70;;;0.60;99.90;;;;;;6315658;22;20494;-74
2022/03/04 07:47:23;;;;;;;1.00;1.00;;;0.70;99.90;;;;;;6304394;22;20007;-72
2022/03/04 07:49:50;;;;;;;0.25;0.25;;;0.80;99.90;;;;;;6303992;22;20008;-71
2022/03/04 07:52:15;;;;;;;2.38;2.17;;;0.90;99.90;;;;;;6303727;22;20019;-72
2022/03/04 07:54:41;;;;;;;0.30;0.30;;;1.00;99.90;;;;;;6315624;22;20317;-71
2022/03/04 07:57:07;;;;;;;0.17;0.17;;;1.10;99.90;;;;;;6305663;22;20011;-72
2022/03/04 07:59:33;;;;;;;2.65;1.85;;;1.20;99.90;;;;;;6315966;22;20011;-70
2022/03/04 08:01:59;;;;;;;1.77;1.65;;;1.30;99.90;;;;;;6305570;22;20436;-70
2022/03/04 08:04:25;;;;;;;6.10;2.90;;;1.40;99.90;;;;;;6305576;22;20052;-71
2022/03/04 08:06:50;;;;;;;1.05;0.88;;;1.50;99.90;;;;;;6315545;22;20056;-72
2022/03/04 08:09:16;;;;;;;2.13;0.73;;;1.60;99.90;;;;;;6314236;22;20003;-71
2022/03/04 08:11:44;;;;;;;1.65;1.38;;;1.70;99.90;;;;;;6305428;22;20599;-72
2022/03/04 08:14:10;;;;;;;0.68;0.68;;;1.80;99.90;;;;;;6317514;22;20029;-70
2022/03/04 08:16:36;;;;;;;0.30;0.30;;;1.90;99.90;;;;;;6307947;22;20007;-65
2022/03/04 08:19:05;;;;;;;0.10;0.10;;;2.00;99.90;;;;;;6316357;22;20013;-73
2022/03/04 08:21:34;;;;;;;1.45;1.35;;;2.10;99.90;;;;;;6316572;22;20331;-69
2022/03/04 08:24:00;;;;;;;0.82;0.82;;;2.20;99.90;;;;;;6317833;22;20009;-69
2022/03/04 08:26:25;;;;;;;0.43;0.43;;;2.40;99.90;;;;;;6306218;22;20086;-70
2022/03/04 08:28:51;;;;;;;0.55;0.55;;;2.50;99.90;;;;;;6254541;22;20443;-70
2022/03/04 08:31:17;;;;;;;8.90;1.40;;;2.60;99.90;;;;;;6317903;22;20015;-70
2022/03/04 08:33:45;;;;;;;1.58;1.48;;;2.70;99.90;;;;;;6307667;22;20010;-70
2022/03/04 08:36:12;;;;;;;0.10;0.10;;;2.90;99.90;;;;;;6317529;22;20017;-70
2022/03/04 08:38:39;;;;;;;2.95;1.75;;;3.00;99.90;;;;;;6317772;22;20003;-70
2022/03/04 08:41:05;;;;;;;0.10;0.10;;;3.10;99.90;;;;;;6316284;22;20003;-71
2022/03/04 08:43:34;;;;;;;3.03;2.33;;;3.30;99.90;;;;;;6317760;22;20003;-70
2022/03/04 08:46:01;;;;;;;0.30;0.30;;;3.40;99.90;;;;;;6305409;22;20061;-69
2022/03/04 08:48:27;;;;;;;1.02;0.82;;;3.50;99.90;;;;;;6306114;22;20031;-70
2022/03/04 08:50:53;;;;;;;1.38;0.85;;;3.60;99.90;;;;;;6317383;22;20011;-70
2022/03/04 08:53:19;;;;;;;0.40;0.40;;;3.70;99.90;;;;;;6315999;22;20045;-70
2022/03/04 08:55:45;;;;;;;2.00;1.90;;;3.80;99.90;;;;;;6307349;22;20432;-70
2022/03/04 08:58:11;;;;;;;1.48;1.38;;;4.00;99.90;;;;;;6315564;22;20004;-70
2022/03/04 09:00:38;;;;;;;0.52;0.52;;;4.10;99.90;;;;;;6306262;22;20007;-70
2022/03/04 09:03:04;;;;;;;0.57;0.57;;;4.30;99.90;;;;;;6316116;22;20468;-70
2022/03/04 09:05:31;;;;;;;1.70;1.60;;;4.50;99.90;;;;;;6305673;22;20007;-70
2022/03/04 09:07:59;;;;;;;0.25;0.25;;;4.60;99.90;;;;;;6305478;22;20332;-70
2022/03/04 09:10:27;;;;;;;0.30;0.30;;;4.70;99.90;;;;;;6316096;22;20328;-70
2022/03/04 09:12:52;;;;;;;0.13;0.13;;;4.80;99.30;;;;;;6317210;22;20011;-70
2022/03/04 09:15:19;;;;;;;1.40;1.30;;;4.90;99.00;;;;;;6315676;22;20082;-70
2022/03/04 09:17:45;;;;;;;0.20;0.20;;;5.00;98.40;;;;;;6307248;22;20506;-70
2022/03/04 09:20:12;;;;;;;3.08;2.72;;;5.20;98.30;;;;;;6307360;22;20030;-70
2022/03/04 09:22:38;;;;;;;2.35;2.15;;;5.30;98.10;;;;;;6315976;22;20097;-70
2022/03/04 09:25:04;;;;;;;2.20;2.08;;;5.40;97.60;;;;;;6315436;22;20011;-70
2022/03/04 09:27:30;;;;;;;0.30;0.30;;;5.50;97.20;;;;;;6307394;22;20094;-70
2022/03/04 09:29:55;;;;;;;0.60;0.60;;;5.60;96.90;;;;;;6316960;22;20390;-70
2022/03/04 09:32:23;;;;;;;0.75;0.75;;;5.60;96.20;;;;;;6307326;22;20011;-70
2022/03/04 09:34:49;;;;;;;2.17;1.98;;;5.60;96.10;;;;;;6317240;22;20015;-70
2022/03/04 09:37:15;;;;;;;0.82;0.80;;;5.60;96.20;;;;;;6307263;22;20014;-70
2022/03/04 09:39:41;;;;;;;1.35;1.30;;;5.60;96.20;;;;;;6306797;22;20045;-69
2022/03/04 09:42:08;;;;;;;5.10;3.53;;;5.80;95.90;;;;;;6279377;22;20351;-70
2022/03/04 09:44:34;;;;;;;10.25;1.55;;;5.90;95.40;;;;;;6306948;22;20003;-70
2022/03/04 09:47:01;;;;;;;0.75;0.75;;;6.00;95.40;;;;;;6305150;22;20011;-71
2022/03/04 09:49:36;;;;;;;0.65;0.65;;;6.30;95.20;;;;;;6315822;22;20316;-70
2022/03/04 09:52:06;;;;;;;1.85;1.75;;;6.50;94.80;;;;;;6306159;22;20365;-69
2022/03/04 09:54:33;;;;;;;6.72;2.90;;;6.50;95.00;;;;;;6316942;22;20356;-69
2022/03/04 09:56:59;;;;;;;1.33;1.23;;;6.60;94.70;;;;;;6316967;22;20011;-70
2022/03/04 09:59:25;;;;;;;1.15;0.85;;;6.80;94.30;;;;;;6316963;22;20436;-70
2022/03/04 10:01:51;;;;;;;0.32;0.32;;;7.00;94.20;;;;;;6305065;22;20339;-69
2022/03/04 10:04:17;;;;;;;0.20;0.20;;;7.10;93.80;;;;;;6306686;22;20094;-70
2022/03/04 10:06:49;;;;;;;3.55;1.50;;;7.30;93.60;;;;;;6305600;22;20331;-69
2022/03/04 10:09:34;;;;;;;;;;;7.20;93.40;;;;;;6307342;22;20467;-69
2022/03/04 10:12:07;;;;;;;1.80;1.70;;;7.40;92.70;;;;;;6306510;22;19906;-70
2022/03/04 10:14:33;;;;;;;1.20;1.20;;;7.60;92.40;;;;;;6316614;22;20014;-69
2022/03/04 10:16:59;;;;;;;1.25;1.15;;;7.60;91.50;;;;;;6306790;22;20006;-69
2022/03/04 10:19:26;;;;;;;3.10;1.35;;;7.60;91.40;;;;;;6316965;22;20011;-69
2022/03/04 10:22:00;;;;;;;0.38;0.35;;;7.70;91.10;;;;;;6315199;22;20038;-69
2022/03/04 10:24:34;;;;;;;0.47;0.47;;;7.90;91.10;;;;;;6316911;22;20007;-69
2022/03/04 10:27:02;;;;;;;0.73;0.73;;;8.20;91.20;;;;;;6314978;22;20091;-71
2022/03/04 10:29:30;;;;;;;10.85;2.65;;;8.20;90.20;;;;;;6306781;22;20022;-70
2022/03/04 10:32:14;;;;;;;2.45;2.25;;;8.00;90.80;;;;;;6306544;22;20390;-80
2022/03/04 10:35:05;;;;;;;3.92;2.38;;;8.20;91.20;;;;;;6308778;22;20019;-81
2022/03/04 10:37:56;;;;;;;0.50;0.50;;;8.50;90.30;;;;;;6316721;22;20007;-72
2022/03/04 10:40:26;;;;;;;0.20;0.20;;;8.70;89.40;;;;;;6316908;22;20094;-75
2022/03/04 10:43:06;;;;;;;1.90;1.75;;;8.50;88.90;;;;;;6280032;22;20106;-70
2022/03/04 10:45:35;;;;;;;0.50;0.50;;;8.90;88.90;;;;;;6278650;22;20011;-69
2022/03/04 10:48:02;;;;;;;2.00;1.75;;;9.00;85.40;;;;;;6316476;22;20015;-69
2022/03/04 10:50:36;;;;;;;3.63;3.13;;;8.80;87.00;;;;;;6304377;22;20011;-74
2022/03/04 10:53:12;;;;;;;0.45;0.45;;;9.30;87.30;;;;;;6316502;22;20011;-75
2022/03/04 10:55:39;;;;;;;2.45;2.25;;;10.00;84.10;;;;;;6304917;22;20011;-73
2022/03/04 10:58:28;;;;;;;2.47;1.35;;;9.90;83.50;;;;;;6305792;22;20356;-70
2022/03/04 11:01:19;;;;;;;2.80;2.60;;;9.10;84.80;;;;;;6306538;22;20003;-74
2022/03/04 11:03:45;;;;;;;2.53;2.33;;;9.50;84.20;;;;;;6315151;22;20011;-74
2022/03/04 11:06:16;;;;;;;1.95;1.38;;;9.70;82.60;;;;;;6315850;22;20328;-74
2022/03/04 11:08:42;;;;;;;0.65;0.50;;;10.30;81.40;;;;;;6316556;22;20076;-74
2022/03/04 11:11:09;;;;;;;6.00;2.30;;;9.50;80.70;;;;;;6304795;22;20000;-74
2022/03/04 11:13:36;;;;;;;2.30;1.85;;;10.00;81.90;;;;;;6305943;22;20436;-74
2022/03/04 11:16:05;;;;;;;2.75;2.10;;;10.50;80.10;;;;;;6305949;22;20003;-75
2022/03/04 11:18:33;;;;;;;2.28;2.08;;;11.10;78.40;;;;;;6316437;22;20012;-74
2022/03/04 11:21:00;;;;;;;1.73;1.35;;;10.50;76.80;;;;;;6314628;22;20448;-74
2022/03/04 11:23:28;;;;;;;0.85;0.85;;;10.00;78.40;;;;;;6306334;22;20010;-75
2022/03/04 11:25:59;;;;;;;7.15;1.65;;;10.00;79.80;;;;;;6304650;22;20086;-74
2022/03/04 11:28:37;;;;;;;0.45;0.38;;;10.20;77.80;;;;;;6304602;22;20015;-74
2022/03/04 11:31:09;;;;;;;2.15;1.40;;;10.40;77.40;;;;;;6306309;22;20011;-74
2022/03/04 11:33:37;;;;;;;;;;;10.00;77.80;;;;;;6306652;22;20011;-74
2022/03/04 11:36:14;;;;;;;1.60;1.50;;;10.80;77.40;;;;;;6304590;22;19906;-75
2022/03/04 11:38:46;;;;;;;2.63;2.42;;;10.40;76.10;;;;;;6304540;22;20007;-74
2022/03/04 11:41:31;;;;;;;1.67;1.58;;;10.50;77.00;;;;;;6315801;22;20379;-74
2022/03/04 11:44:22;;;;;;;0.73;0.73;;;11.70;74.20;;;;;;6306057;22;20033;-74
2022/03/04 11:47:05;;;;;;;1.80;1.65;;;12.70;71.00;;;;;;6306114;22;20011;-73
2022/03/04 11:49:46;;;;;;;3.35;2.38;;;13.50;69.50;;;;;;6279451;22;20011;-73
2022/03/04 11:52:48;;;;;;;4.05;1.55;;;11.90;67.50;;;;;;6315808;22;20444;-72
2022/03/04 11:55:20;;;;;;;2.47;1.65;;;12.20;68.60;;;;;;6305262;22;20007;-74
2022/03/04 11:57:57;;;;;;;1.60;1.42;;;13.20;68.80;;;;;;6304579;22;20061;-73
2022/03/04 12:00:26;;;;;;;4.07;3.47;;;13.20;64.00;;;;;;6306325;22;20495;-73
2022/03/04 12:03:09;;;;;;;4.47;2.00;;;12.40;68.30;;;;;;6316147;22;20542;-74
2022/03/04 12:05:36;;;;;;;10.45;3.42;;;13.70;64.10;;;;;;6314692;22;20007;-74
2022/03/04 12:08:02;;;;;;;4.68;2.15;;;11.50;66.40;;;;;;6304321;22;20397;-73
2022/03/04 12:10:43;;;;;;;2.90;2.08;;;11.90;67.70;;;;;;6306115;22;20080;-73
2022/03/04 12:13:18;;;;;;;1.65;1.02;;;12.60;64.50;;;;;;6315922;22;20003;-74
2022/03/04 12:15:48;;;;;;;1.92;1.80;;;12.10;65.70;;;;;;6288899;22;20356;-73
2022/03/04 12:18:28;;;;;;;2.50;2.13;;;13.00;66.80;;;;;;6306017;22;20007;-73
2022/03/04 12:21:13;;;;;;;0.65;0.65;;;12.00;64.30;;;;;;6315847;22;20015;-73
2022/03/04 12:23:42;;;;;;;1.77;1.67;;;12.10;64.90;;;;;;6278091;22;20076;-73
2022/03/04 12:26:22;;;;;;;5.72;3.38;;;12.20;65.90;;;;;;6315654;22;20011;-73
2022/03/04 12:29:06;;;;;;;3.10;2.80;;;13.50;61.20;;;;;;6280390;22;20003;-73
2022/03/04 12:31:39;;;;;;;3.50;3.00;;;12.20;62.60;;;;;;6303983;22;20452;-73
2022/03/04 12:34:16;;;;;;;0.95;0.90;;;12.30;63.50;;;;;;6316029;22;20016;-73
2022/03/04 12:36:42;;;;;;;1.63;1.52;;;12.60;62.30;;;;;;6314347;22;20004;-73
2022/03/04 12:39:08;;;;;;;0.98;0.98;;;12.20;62.40;;;;;;6305607;22;20094;-73
2022/03/04 12:41:35;;;;;;;4.03;1.92;;;12.30;63.70;;;;;;6315737;22;20046;-73
2022/03/04 12:44:05;;;;;;;3.10;1.27;;;13.80;61.60;;;;;;6304071;22;20018;-73
2022/03/04 12:46:37;;;;;;;11.30;3.30;;;14.80;59.30;;;;;;6314427;22;20007;-70
2022/03/04 12:49:05;;;;;;;0.63;0.63;;;15.20;57.60;;;;;;6304325;22;20037;-72
2022/03/04 12:51:35;;;;;;;0.95;0.95;;;15.10;59.50;;;;;;6303729;22;20008;-72
2022/03/04 12:54:07;;;;;;;3.28;2.95;;;14.10;57.80;;;;;;6305743;22;20436;-72
2022/03/04 12:56:32;;;;;;;5.30;1.35;;;14.10;59.30;;;;;;6315943;22;20003;-73